Time;durP1;ratioP1;P1;durP2;ratioP2;P2;SDS_P1;SDS_P2;PMS_P1;PMS_P2;Temp;Humidity;BMP_temperature;BMP_pressure;BME280_temperature;BME280_humidity;BME280_pressure;Samples;Min_cycle;Max_cycle;Signal;HPM_P1;HPM_P2
2023/10/21 00:01:05;;;;;;;4.95;1.90;;;15.60;99.90;;;;;;4215722;28;20058;-56
2023/10/21 00:03:07;;;;;;;4.85;1.95;;;15.70;99.90;;;;;;4215482;28;20048;-55
2023/10/21 00:05:09;;;;;;;7.40;2.47;;;15.70;99.90;;;;;;4215474;28;20504;-56
2023/10/21 00:07:13;;;;;;;6.35;2.15;;;15.70;99.90;;;;;;4215887;28;20134;-63
2023/10/21 00:09:15;;;;;;;4.53;2.05;;;15.70;99.90;;;;;;4215239;28;20416;-55
2023/10/21 00:11:17;;;;;;;6.07;2.00;;;15.70;99.90;;;;;;4215742;28;20493;-56
2023/10/21 00:13:19;;;;;;;5.50;2.08;;;15.60;99.90;;;;;;4215710;28;20101;-56
2023/10/21 00:15:21;;;;;;;5.82;1.55;;;15.60;99.90;;;;;;4215684;28;20426;-56
2023/10/21 00:17:25;;;;;;;7.70;2.20;;;15.60;99.90;;;;;;4201979;28;20044;-56
2023/10/21 00:19:27;;;;;;;4.28;1.48;;;15.60;99.90;;;;;;4232347;28;20047;-55
2023/10/21 00:21:29;;;;;;;3.03;1.52;;;15.60;99.90;;;;;;4232212;28;20128;-55
2023/10/21 00:23:32;;;;;;;6.25;1.60;;;15.60;99.90;;;;;;4231990;28;20047;-56
2023/10/21 00:25:35;;;;;;;3.85;1.30;;;15.60;99.90;;;;;;4216419;28;20040;-55
2023/10/21 00:27:37;;;;;;;3.50;1.38;;;15.50;99.90;;;;;;4215167;28;20048;-55
2023/10/21 00:29:39;;;;;;;3.47;1.38;;;15.50;99.90;;;;;;4215359;28;20047;-56
2023/10/21 00:31:42;;;;;;;6.13;1.40;;;15.50;99.90;;;;;;4215083;28;20044;-55
2023/10/21 00:33:44;;;;;;;5.25;1.15;;;15.40;99.90;;;;;;4197119;28;20132;-55
2023/10/21 00:35:46;;;;;;;3.42;1.00;;;15.40;99.90;;;;;;4215284;28;20051;-56
2023/10/21 00:37:48;;;;;;;1.00;0.57;;;15.40;99.90;;;;;;4214747;28;20040;-56
2023/10/21 00:39:51;;;;;;;2.08;0.60;;;15.30;99.90;;;;;;4215952;28;20051;-57
2023/10/21 00:41:53;;;;;;;4.10;0.77;;;15.30;99.90;;;;;;4198254;28;20049;-58
2023/10/21 00:43:56;;;;;;;1.17;0.57;;;15.30;99.90;;;;;;4215510;28;20358;-55
2023/10/21 00:45:59;;;;;;;1.92;0.68;;;15.20;99.90;;;;;;4214863;28;20044;-56
2023/10/21 00:48:01;;;;;;;1.88;0.60;;;15.20;99.90;;;;;;4214711;28;20048;-55
2023/10/21 00:50:04;;;;;;;7.32;0.70;;;15.20;99.90;;;;;;4214667;28;20134;-56
2023/10/21 00:52:06;;;;;;;1.90;0.40;;;15.10;99.90;;;;;;4214757;28;20054;-56
2023/10/21 00:54:10;;;;;;;1.35;0.43;;;15.10;99.90;;;;;;4214024;28;20044;-55
2023/10/21 00:56:13;;;;;;;4.05;0.47;;;15.10;99.90;;;;;;4214843;28;20059;-56
2023/10/21 00:58:15;;;;;;;3.38;0.70;;;15.00;99.90;;;;;;4214676;28;20078;-56
2023/10/21 01:00:17;;;;;;;1.25;0.43;;;15.00;99.90;;;;;;4214892;28;20044;-56
2023/10/21 01:02:20;;;;;;;2.53;0.50;;;15.00;99.90;;;;;;4214882;28;20051;-56
2023/10/21 01:04:23;;;;;;;1.35;0.43;;;15.00;99.90;;;;;;4214501;28;20048;-55
2023/10/21 01:06:26;;;;;;;1.17;0.63;;;15.00;99.90;;;;;;4214947;28;20044;-56
2023/10/21 01:08:28;;;;;;;3.55;0.60;;;15.00;99.90;;;;;;4214219;28;20044;-56
2023/10/21 01:10:30;;;;;;;2.72;0.50;;;15.00;99.90;;;;;;4214586;28;20191;-56
2023/10/21 01:12:34;;;;;;;1.40;0.35;;;15.00;99.90;;;;;;4214317;28;20044;-55
2023/10/21 01:14:36;;;;;;;1.42;0.57;;;15.00;99.90;;;;;;4214521;28;20158;-57
2023/10/21 01:16:38;;;;;;;3.20;0.90;;;14.90;99.90;;;;;;4214587;28;20043;-55
2023/10/21 01:18:40;;;;;;;1.00;0.40;;;14.90;99.90;;;;;;4230032;28;20047;-56
2023/10/21 01:20:43;;;;;;;2.50;0.68;;;14.90;99.90;;;;;;4213427;28;20403;-55
2023/10/21 01:22:45;;;;;;;2.00;0.57;;;14.90;99.90;;;;;;4231014;28;20043;-56
2023/10/21 01:24:48;;;;;;;2.33;0.50;;;14.90;99.90;;;;;;4204086;28;20049;-55
2023/10/21 01:26:50;;;;;;;1.58;0.50;;;14.90;99.90;;;;;;4214474;28;20382;-55
2023/10/21 01:28:52;;;;;;;0.85;0.43;;;14.90;99.90;;;;;;4214188;28;20451;-56
2023/10/21 01:30:55;;;;;;;0.70;0.40;;;14.90;99.90;;;;;;4214806;28;20067;-56
2023/10/21 01:32:57;;;;;;;3.63;0.40;;;14.80;99.90;;;;;;4214042;28;20044;-56
2023/10/21 01:34:59;;;;;;;1.40;0.57;;;14.90;99.90;;;;;;4214035;28;20044;-56
2023/10/21 01:37:01;;;;;;;1.90;0.75;;;14.90;99.90;;;;;;4196014;28;20093;-56
2023/10/21 01:39:05;;;;;;;4.15;0.90;;;14.80;99.90;;;;;;4214171;28;20147;-55
2023/10/21 01:41:10;;;;;;;1.85;0.60;;;14.80;99.90;;;;;;4214192;28;20052;-55
2023/10/21 01:43:12;;;;;;;1.77;0.60;;;14.80;99.90;;;;;;4214354;28;20094;-56
2023/10/21 01:45:14;;;;;;;3.08;0.75;;;14.80;99.90;;;;;;4213951;28;20075;-56
2023/10/21 01:47:16;;;;;;;1.38;0.43;;;14.80;99.90;;;;;;4214031;28;20048;-55
2023/10/21 01:49:19;;;;;;;1.63;0.60;;;14.70;99.90;;;;;;4213720;28;20052;-55
2023/10/21 01:51:21;;;;;;;2.50;0.75;;;14.70;99.90;;;;;;4213657;28;20051;-55
2023/10/21 01:53:23;;;;;;;1.38;0.40;;;14.70;99.90;;;;;;4214205;28;20047;-56
2023/10/21 01:55:25;;;;;;;3.45;0.95;;;14.70;99.90;;;;;;4195793;28;20119;-55
2023/10/21 01:57:28;;;;;;;1.85;0.68;;;14.70;99.90;;;;;;4213819;28;20051;-56
2023/10/21 01:59:30;;;;;;;2.53;0.80;;;14.80;99.90;;;;;;4195977;28;20105;-56
2023/10/21 02:01:32;;;;;;;3.05;1.02;;;14.70;99.90;;;;;;4213662;28;20048;-56
2023/10/21 02:03:34;;;;;;;1.65;0.68;;;14.70;99.90;;;;;;4213913;28;20429;-56
2023/10/21 02:05:38;;;;;;;1.88;0.60;;;14.70;99.90;;;;;;4213270;28;20047;-55
2023/10/21 02:07:40;;;;;;;5.03;0.60;;;14.70;99.90;;;;;;4213479;28;20254;-56
2023/10/21 02:09:42;;;;;;;2.65;0.70;;;14.80;99.90;;;;;;4213633;28;20047;-56
2023/10/21 02:11:44;;;;;;;2.53;0.73;;;14.80;99.90;;;;;;4213903;28;20075;-55
2023/10/21 02:13:48;;;;;;;1.60;0.70;;;14.80;99.90;;;;;;4213604;28;20044;-56
2023/10/21 02:15:52;;;;;;;2.65;0.80;;;14.70;99.90;;;;;;4213566;28;20102;-56
2023/10/21 02:17:54;;;;;;;5.40;1.00;;;14.80;99.90;;;;;;4222690;28;20078;-56
2023/10/21 02:19:57;;;;;;;4.93;1.25;;;14.70;99.90;;;;;;4230362;28;20043;-56
2023/10/21 02:21:59;;;;;;;1.67;0.70;;;14.60;99.90;;;;;;4231734;28;20257;-56
2023/10/21 02:24:01;;;;;;;1.58;0.63;;;14.60;99.90;;;;;;4228919;28;20040;-57
2023/10/21 02:26:04;;;;;;;2.45;0.68;;;14.60;99.90;;;;;;4213513;28;20044;-55
2023/10/21 02:28:07;;;;;;;2.35;0.85;;;14.60;99.90;;;;;;4213697;28;20076;-56
2023/10/21 02:30:14;;;;;;;2.17;0.75;;;14.70;99.90;;;;;;4213409;28;20051;-55
2023/10/21 02:32:16;;;;;;;4.35;1.15;;;14.70;99.90;;;;;;4213814;28;20054;-56
2023/10/21 02:34:19;;;;;;;4.03;1.00;;;14.60;99.90;;;;;;4213313;28;20040;-56
2023/10/21 02:36:21;;;;;;;3.03;0.82;;;14.50;99.90;;;;;;4213481;28;20052;-56
2023/10/21 02:38:25;;;;;;;2.67;0.95;;;14.50;99.90;;;;;;4213607;28;20044;-56
2023/10/21 02:40:27;;;;;;;4.33;0.80;;;14.50;99.90;;;;;;4213735;28;20389;-56
2023/10/21 02:42:29;;;;;;;2.85;0.90;;;14.50;99.90;;;;;;4213686;28;20468;-55
2023/10/21 02:44:31;;;;;;;6.88;1.08;;;14.50;99.90;;;;;;4213384;28;20165;-56
2023/10/21 02:46:34;;;;;;;7.82;1.25;;;14.30;99.90;;;;;;4213705;28;20060;-55
2023/10/21 02:48:37;;;;;;;6.50;1.25;;;14.30;99.90;;;;;;4212873;28;20475;-56
2023/10/21 02:50:39;;;;;;;4.75;1.48;;;14.20;99.90;;;;;;4213170;28;20044;-55
2023/10/21 02:52:43;;;;;;;7.10;1.80;;;14.20;99.90;;;;;;4213482;28;20051;-57
2023/10/21 02:54:45;;;;;;;3.40;0.90;;;14.20;99.90;;;;;;4213564;28;20067;-56
2023/10/21 02:56:47;;;;;;;4.93;1.45;;;14.20;99.90;;;;;;4213233;28;20040;-56
2023/10/21 02:58:49;;;;;;;5.88;1.15;;;14.30;99.90;;;;;;4213343;28;20068;-56
2023/10/21 03:00:51;;;;;;;6.28;1.40;;;14.30;99.90;;;;;;4213501;28;20134;-56
2023/10/21 03:02:55;;;;;;;7.00;1.30;;;14.30;99.90;;;;;;4213156;28;20072;-56
2023/10/21 03:04:58;;;;;;;6.93;1.55;;;14.30;99.90;;;;;;4213032;28;20079;-56
2023/10/21 03:07:01;;;;;;;8.18;1.45;;;14.30;99.90;;;;;;4213205;28;20047;-57
2023/10/21 03:09:06;;;;;;;5.78;1.50;;;14.30;99.90;;;;;;4213446;28;20131;-58
2023/10/21 03:11:09;;;;;;;7.00;1.95;;;14.30;99.90;;;;;;4213350;28;20113;-58
2023/10/21 03:13:11;;;;;;;4.75;1.60;;;14.30;99.90;;;;;;4213284;28;20587;-58
2023/10/21 03:15:13;;;;;;;7.10;1.67;;;14.30;99.90;;;;;;4213435;28;20087;-58
2023/10/21 03:17:15;;;;;;;9.45;2.08;;;14.30;99.90;;;;;;4217505;28;20123;-58
2023/10/21 03:19:19;;;;;;;9.35;1.70;;;14.30;99.90;;;;;;4234536;28;20082;-58
2023/10/21 03:21:21;;;;;;;7.30;1.77;;;14.30;99.90;;;;;;4235031;28;20079;-61
2023/10/21 03:23:23;;;;;;;8.18;1.92;;;14.20;99.90;;;;;;4233490;28;20046;-56
2023/10/21 03:25:25;;;;;;;6.75;1.52;;;14.30;99.90;;;;;;4218816;28;20066;-55
2023/10/21 03:27:27;;;;;;;10.55;1.85;;;14.30;99.90;;;;;;4216445;28;20064;-56
2023/10/21 03:29:29;;;;;;;8.13;1.60;;;14.20;99.90;;;;;;4216183;28;20044;-56
2023/10/21 03:31:31;;;;;;;11.13;1.63;;;14.20;99.90;;;;;;4216202;28;20055;-56
2023/10/21 03:33:34;;;;;;;8.40;1.98;;;14.20;99.90;;;;;;4217056;28;20119;-56
2023/10/21 03:35:37;;;;;;;9.50;2.28;;;14.10;99.90;;;;;;4216757;28;20135;-57
2023/10/21 03:37:39;;;;;;;7.82;1.75;;;14.20;99.90;;;;;;4216422;28;20455;-56
2023/10/21 03:39:41;;;;;;;8.38;1.88;;;14.10;99.90;;;;;;4216151;28;20496;-55
2023/10/21 03:41:43;;;;;;;7.78;1.60;;;14.10;99.90;;;;;;4216171;28;20048;-56
2023/10/21 03:43:45;;;;;;;7.63;2.13;;;14.00;99.90;;;;;;4215790;28;20439;-55
2023/10/21 03:45:48;;;;;;;8.30;2.17;;;14.10;99.90;;;;;;4216177;28;20405;-55
2023/10/21 03:47:50;;;;;;;8.10;2.00;;;14.00;99.90;;;;;;4215721;28;20086;-57
2023/10/21 03:49:52;;;;;;;9.60;2.28;;;14.00;99.90;;;;;;4215614;28;20398;-55
2023/10/21 03:51:55;;;;;;;8.13;2.40;;;14.00;99.90;;;;;;4216097;28;20102;-55
2023/10/21 03:53:57;;;;;;;10.00;2.38;;;14.00;99.90;;;;;;4198091;28;20136;-55
2023/10/21 03:56:00;;;;;;;7.88;1.58;;;14.00;99.90;;;;;;4197968;28;20040;-57
2023/10/21 03:58:07;;;;;;;8.30;2.05;;;13.90;99.90;;;;;;4216004;28;20052;-58
2023/10/21 04:00:12;;;;;;;12.45;1.98;;;13.90;99.90;;;;;;4215693;28;20048;-58
2023/10/21 04:02:14;;;;;;;7.88;1.98;;;13.90;99.90;;;;;;4197589;28;20055;-57
2023/10/21 04:04:16;;;;;;;9.02;1.90;;;13.90;99.90;;;;;;4215436;28;20044;-58
2023/10/21 04:06:18;;;;;;;8.57;2.42;;;14.00;99.90;;;;;;4215829;28;20127;-57
2023/10/21 04:08:23;;;;;;;12.75;2.20;;;14.00;99.90;;;;;;4215678;28;20040;-57
2023/10/21 04:10:26;;;;;;;7.80;1.90;;;14.00;99.90;;;;;;4215461;28;20052;-58
2023/10/21 04:12:29;;;;;;;12.45;1.70;;;14.00;99.90;;;;;;4215696;28;20409;-58
2023/10/21 04:14:32;;;;;;;13.27;2.65;;;13.90;99.90;;;;;;4215618;28;20048;-58
2023/10/21 04:16:34;;;;;;;10.27;1.85;;;13.80;99.90;;;;;;4215114;28;20052;-58
2023/10/21 04:18:36;;;;;;;7.43;1.80;;;13.80;99.90;;;;;;4230294;28;20408;-57
2023/10/21 04:20:39;;;;;;;6.40;1.38;;;13.80;99.90;;;;;;4214444;28;20516;-57
2023/10/21 04:22:41;;;;;;;7.88;1.98;;;13.80;99.90;;;;;;4232518;28;20096;-58
2023/10/21 04:24:44;;;;;;;6.13;1.92;;;13.90;99.90;;;;;;4223737;28;20069;-60
2023/10/21 04:26:46;;;;;;;9.32;1.50;;;13.80;99.90;;;;;;4232334;28;20040;-57
2023/10/21 04:28:49;;;;;;;13.10;2.25;;;13.80;99.90;;;;;;4231689;28;20048;-57
2023/10/21 04:30:51;;;;;;;6.90;1.52;;;13.80;99.90;;;;;;4231687;28;20039;-58
2023/10/21 04:32:53;;;;;;;8.18;1.92;;;13.80;99.90;;;;;;4232276;28;20048;-58
2023/10/21 04:34:56;;;;;;;8.77;1.83;;;13.80;99.90;;;;;;4232049;28;20122;-58
2023/10/21 04:36:58;;;;;;;7.53;1.40;;;13.80;99.90;;;;;;4232071;28;20054;-57
2023/10/21 04:39:00;;;;;;;7.35;1.85;;;13.80;99.90;;;;;;4231949;28;20054;-58
2023/10/21 04:41:07;;;;;;;9.18;2.28;;;13.80;99.90;;;;;;4231939;28;20057;-58
2023/10/21 04:43:09;;;;;;;10.38;2.00;;;13.80;99.90;;;;;;4232098;28;20048;-58
2023/10/21 04:45:11;;;;;;;7.28;2.03;;;13.80;99.90;;;;;;4231949;28;20067;-58
2023/10/21 04:47:15;;;;;;;11.27;1.80;;;13.80;99.90;;;;;;4231769;28;20043;-57
2023/10/21 04:49:17;;;;;;;9.33;1.57;;;13.80;99.90;;;;;;4231704;28;20069;-58
2023/10/21 04:51:20;;;;;;;8.45;1.67;;;13.80;99.90;;;;;;4231851;28;20507;-59
2023/10/21 04:53:22;;;;;;;8.07;1.67;;;13.80;99.90;;;;;;4231910;28;20078;-58
2023/10/21 04:55:24;;;;;;;9.40;2.00;;;13.80;99.90;;;;;;4231770;28;20466;-57
2023/10/21 04:57:28;;;;;;;13.10;2.22;;;13.80;99.90;;;;;;4231898;28;20055;-58
2023/10/21 04:59:30;;;;;;;9.73;2.00;;;13.80;99.90;;;;;;4221275;28;20048;-58
2023/10/21 05:01:32;;;;;;;9.75;2.10;;;13.80;99.90;;;;;;4214855;28;20052;-58
2023/10/21 05:03:35;;;;;;;13.63;2.38;;;13.80;99.90;;;;;;4214952;28;20119;-58
2023/10/21 05:05:37;;;;;;;9.48;1.90;;;13.80;99.90;;;;;;4214983;28;20067;-58
2023/10/21 05:07:41;;;;;;;7.63;1.88;;;13.80;99.90;;;;;;4215052;28;20048;-57
2023/10/21 05:09:44;;;;;;;11.02;2.28;;;13.80;99.90;;;;;;4214632;28;20044;-57
2023/10/21 05:11:46;;;;;;;12.35;1.80;;;13.80;99.90;;;;;;4214729;28;20496;-58
2023/10/21 05:13:50;;;;;;;6.88;1.77;;;13.80;99.90;;;;;;4214270;28;20143;-58
2023/10/21 05:15:52;;;;;;;10.15;2.38;;;13.80;99.90;;;;;;4196403;28;20327;-57
2023/10/21 05:17:54;;;;;;;6.00;1.92;;;13.80;99.90;;;;;;4223396;28;20436;-59
2023/10/21 05:19:57;;;;;;;13.05;2.00;;;13.80;99.90;;;;;;4231186;28;20114;-57
2023/10/21 05:21:59;;;;;;;8.15;2.33;;;13.80;99.90;;;;;;4231210;28;20058;-58
2023/10/21 05:24:02;;;;;;;9.27;2.13;;;13.80;99.90;;;;;;4228458;28;20044;-57
2023/10/21 05:26:04;;;;;;;13.02;1.98;;;13.70;99.90;;;;;;4214446;28;20048;-58
2023/10/21 05:28:06;;;;;;;9.30;2.25;;;13.80;99.90;;;;;;4214204;28;20048;-57
2023/10/21 05:30:13;;;;;;;9.90;2.15;;;13.80;99.90;;;;;;4214096;28;20088;-58
2023/10/21 05:32:15;;;;;;;11.98;2.58;;;13.80;99.90;;;;;;4214592;28;20082;-58
2023/10/21 05:34:18;;;;;;;9.35;2.10;;;13.80;99.90;;;;;;4214331;28;20051;-57
2023/10/21 05:36:20;;;;;;;12.35;2.53;;;13.80;99.90;;;;;;4214237;28;20134;-58
2023/10/21 05:38:24;;;;;;;12.98;2.47;;;13.80;99.90;;;;;;4214332;28;20170;-58
2023/10/21 05:40:26;;;;;;;12.32;2.72;;;13.70;99.90;;;;;;4214200;28;20451;-57
2023/10/21 05:42:28;;;;;;;12.18;2.85;;;13.70;99.90;;;;;;4213717;28;20039;-57
2023/10/21 05:44:30;;;;;;;12.45;2.47;;;13.60;99.90;;;;;;4213924;28;20055;-55
2023/10/21 05:46:51;;;;;;;11.98;3.17;;;13.60;99.90;;;;;;4214264;28;20127;-55
2023/10/21 05:48:53;;;;;;;9.32;2.38;;;13.60;99.90;;;;;;4214038;28;20084;-54
2023/10/21 05:51:00;;;;;;;11.65;2.70;;;13.60;99.90;;;;;;4214168;28;20463;-55
2023/10/21 05:53:03;;;;;;;18.13;2.92;;;13.60;99.90;;;;;;4214012;28;20078;-56
2023/10/21 05:55:06;;;;;;;13.20;3.25;;;13.50;99.90;;;;;;4214003;28;20045;-56
2023/10/21 05:57:08;;;;;;;13.00;3.38;;;13.60;99.90;;;;;;4213851;28;20051;-55
2023/10/21 05:59:10;;;;;;;19.00;3.53;;;13.50;99.90;;;;;;4214079;28;20051;-56
2023/10/21 06:01:13;;;;;;;15.05;2.90;;;13.50;99.90;;;;;;4213959;28;20113;-58
2023/10/21 06:03:16;;;;;;;16.42;3.83;;;13.50;99.90;;;;;;4214108;28;20047;-57
2023/10/21 06:05:18;;;;;;;18.52;3.83;;;13.40;99.90;;;;;;4214221;28;20055;-57
2023/10/21 06:07:21;;;;;;;14.32;2.95;;;13.40;99.90;;;;;;4214053;28;20097;-58
2023/10/21 06:09:25;;;;;;;17.90;3.53;;;13.40;99.90;;;;;;4213728;28;20123;-57
2023/10/21 06:11:27;;;;;;;15.90;3.22;;;13.40;99.90;;;;;;4213457;28;20473;-56
2023/10/21 06:13:29;;;;;;;15.82;3.67;;;13.40;99.90;;;;;;4213856;28;20067;-57
2023/10/21 06:15:32;;;;;;;17.75;3.70;;;13.30;99.90;;;;;;4195679;28;20057;-58
2023/10/21 06:17:34;;;;;;;18.98;3.88;;;13.40;99.90;;;;;;4220056;28;20105;-57
2023/10/21 06:19:38;;;;;;;18.67;3.33;;;13.40;99.90;;;;;;4230911;28;20055;-57
2023/10/21 06:21:40;;;;;;;13.48;3.38;;;13.50;99.90;;;;;;4212444;28;20048;-57
2023/10/21 06:23:42;;;;;;;19.05;3.65;;;13.40;99.90;;;;;;4230571;28;20047;-57
2023/10/21 06:25:45;;;;;;;16.15;4.05;;;13.50;99.90;;;;;;4214045;28;20411;-57
2023/10/21 06:27:47;;;;;;;15.40;3.63;;;13.50;99.90;;;;;;4214381;28;20039;-57
2023/10/21 06:29:49;;;;;;;14.32;3.50;;;13.50;99.90;;;;;;4213963;28;20044;-56
2023/10/21 06:31:52;;;;;;;23.55;4.10;;;13.50;99.90;;;;;;4195993;28;20063;-56
2023/10/21 06:33:54;;;;;;;19.15;4.15;;;13.50;99.90;;;;;;4214112;28;20044;-57
2023/10/21 06:35:57;;;;;;;17.98;3.50;;;13.40;99.90;;;;;;4213900;28;20447;-57
2023/10/21 06:37:59;;;;;;;20.50;4.15;;;13.50;99.90;;;;;;4196106;28;20463;-57
2023/10/21 06:40:02;;;;;;;18.92;3.90;;;13.50;99.90;;;;;;4213907;28;20122;-55
2023/10/21 06:42:04;;;;;;;19.83;3.75;;;13.50;99.90;;;;;;4213276;28;20048;-55
2023/10/21 06:44:08;;;;;;;16.42;3.55;;;13.50;99.90;;;;;;4213658;28;20044;-55
2023/10/21 06:46:10;;;;;;;18.40;4.63;;;13.50;99.90;;;;;;4213615;28;20063;-55
2023/10/21 06:48:13;;;;;;;16.02;4.20;;;13.60;99.90;;;;;;4213338;28;20052;-55
2023/10/21 06:50:15;;;;;;;16.38;4.25;;;13.60;99.90;;;;;;4213882;28;20480;-55
2023/10/21 06:52:20;;;;;;;20.88;4.15;;;13.70;99.90;;;;;;4214195;28;20048;-55
2023/10/21 06:54:22;;;;;;;19.75;3.78;;;13.70;99.90;;;;;;4216722;28;20040;-55
2023/10/21 06:56:24;;;;;;;16.40;3.63;;;13.70;99.90;;;;;;4217048;28;20060;-55
2023/10/21 06:58:27;;;;;;;19.65;4.00;;;13.80;99.90;;;;;;4216996;28;20468;-55
2023/10/21 07:00:29;;;;;;;16.08;4.38;;;13.80;99.90;;;;;;4216667;28;20452;-54
2023/10/21 07:02:32;;;;;;;15.75;3.65;;;13.80;99.90;;;;;;4217233;28;20048;-55
2023/10/21 07:04:34;;;;;;;21.58;4.18;;;13.80;99.90;;;;;;4199719;28;20051;-56
2023/10/21 07:06:39;;;;;;;16.73;3.65;;;13.80;99.90;;;;;;4217850;28;20044;-55
2023/10/21 07:08:43;;;;;;;14.55;3.53;;;13.80;99.90;;;;;;4217569;28;20039;-55
2023/10/21 07:10:45;;;;;;;20.80;3.97;;;13.80;99.90;;;;;;4216667;28;20542;-55
2023/10/21 07:12:47;;;;;;;22.33;4.30;;;13.80;99.90;;;;;;4198783;28;20082;-55
2023/10/21 07:14:49;;;;;;;20.25;3.80;;;13.80;99.90;;;;;;4216742;28;20135;-55
2023/10/21 07:16:51;;;;;;;12.30;3.60;;;13.80;99.90;;;;;;4216891;28;20397;-55
2023/10/21 07:18:53;;;;;;;16.15;3.28;;;13.80;99.90;;;;;;4233190;28;20051;-56
2023/10/21 07:20:57;;;;;;;23.80;4.18;;;13.80;99.90;;;;;;4233196;28;20053;-55
2023/10/21 07:22:59;;;;;;;18.15;4.20;;;13.90;99.90;;;;;;4233430;28;20051;-55
2023/10/21 07:25:03;;;;;;;18.95;3.90;;;13.80;99.90;;;;;;4232891;28;20534;-55
2023/10/21 07:27:05;;;;;;;11.98;3.15;;;13.80;99.90;;;;;;4233070;28;20077;-55
2023/10/21 07:29:07;;;;;;;18.33;3.90;;;13.80;99.90;;;;;;4233124;28;20415;-54
2023/10/21 07:31:09;;;;;;;14.27;3.22;;;13.80;99.90;;;;;;4232986;28;20043;-55
2023/10/21 07:33:13;;;;;;;20.30;4.03;;;13.90;99.90;;;;;;4233149;28;20098;-55
2023/10/21 07:35:16;;;;;;;16.05;4.03;;;13.90;99.90;;;;;;4233574;28;20046;-55
2023/10/21 07:37:18;;;;;;;20.50;4.35;;;13.90;99.90;;;;;;4232998;28;20039;-56
2023/10/21 07:39:20;;;;;;;16.13;4.03;;;13.90;99.90;;;;;;4232957;28;20040;-55
2023/10/21 07:41:24;;;;;;;10.93;3.42;;;13.90;99.90;;;;;;4233088;28;20051;-57
2023/10/21 07:43:26;;;;;;;20.42;4.13;;;13.90;99.90;;;;;;4232650;28;20047;-55
2023/10/21 07:45:28;;;;;;;14.75;3.80;;;14.00;99.90;;;;;;4233200;28;20122;-55
2023/10/21 07:47:33;;;;;;;14.57;3.10;;;14.00;99.90;;;;;;4232493;28;20369;-55
2023/10/21 07:49:35;;;;;;;24.08;4.63;;;14.10;99.90;;;;;;4232720;28;20044;-55
2023/10/21 07:51:37;;;;;;;16.15;4.13;;;14.10;99.90;;;;;;4232638;28;20048;-55
2023/10/21 07:53:40;;;;;;;22.92;4.63;;;14.10;99.90;;;;;;4232341;28;20044;-55
2023/10/21 07:55:42;;;;;;;18.58;4.22;;;14.10;99.90;;;;;;4232802;28;20044;-55
2023/10/21 07:57:46;;;;;;;20.83;4.32;;;14.10;99.90;;;;;;4232785;28;20082;-56
2023/10/21 07:59:48;;;;;;;14.68;4.03;;;14.10;99.90;;;;;;4232535;28;20071;-56
2023/10/21 08:01:50;;;;;;;18.58;3.70;;;14.10;99.90;;;;;;4232742;28;20143;-55
2023/10/21 08:03:52;;;;;;;19.67;4.35;;;14.00;99.90;;;;;;4231495;28;20056;-55
2023/10/21 08:05:54;;;;;;;13.30;3.35;;;14.10;99.90;;;;;;4232321;28;20440;-55
2023/10/21 08:07:56;;;;;;;15.93;3.65;;;14.20;99.90;;;;;;4232175;28;20079;-56
2023/10/21 08:09:58;;;;;;;23.85;4.45;;;14.20;99.90;;;;;;4232568;28;20051;-54
2023/10/21 08:12:00;;;;;;;23.42;4.10;;;14.30;99.90;;;;;;4232572;28;20065;-55
2023/10/21 08:14:04;;;;;;;18.67;4.35;;;14.30;99.90;;;;;;4232272;28;20439;-54
2023/10/21 08:16:06;;;;;;;17.55;4.85;;;14.30;99.90;;;;;;4232520;28;20385;-55
2023/10/21 08:18:08;;;;;;;17.67;3.45;;;14.30;99.90;;;;;;4232133;28;20047;-55
2023/10/21 08:20:11;;;;;;;19.90;3.72;;;14.30;99.90;;;;;;4232191;28;20047;-61
2023/10/21 08:22:13;;;;;;;18.58;4.30;;;14.20;99.90;;;;;;4231944;28;20043;-56
2023/10/21 08:24:15;;;;;;;14.30;4.25;;;14.20;99.90;;;;;;4227369;28;20040;-55
2023/10/21 08:26:18;;;;;;;23.45;3.95;;;14.20;99.90;;;;;;4215333;28;20044;-55
2023/10/21 08:28:20;;;;;;;19.85;4.07;;;14.30;99.90;;;;;;4215354;28;20101;-55
2023/10/21 08:30:23;;;;;;;18.65;3.72;;;14.40;99.90;;;;;;4215089;28;20050;-55
2023/10/21 08:32:25;;;;;;;17.15;3.67;;;14.50;99.90;;;;;;4215208;28;20432;-55
2023/10/21 08:34:27;;;;;;;16.77;3.30;;;14.50;99.90;;;;;;4215188;28;20048;-55
2023/10/21 08:36:29;;;;;;;23.88;4.35;;;14.50;99.90;;;;;;4216832;28;20051;-58
2023/10/21 08:38:32;;;;;;;14.07;3.85;;;14.40;99.90;;;;;;4215748;28;20080;-55
2023/10/21 08:40:36;;;;;;;21.25;3.90;;;14.50;99.90;;;;;;4214790;28;20048;-55
2023/10/21 08:42:39;;;;;;;21.65;3.83;;;14.40;99.90;;;;;;4215143;28;20067;-55
2023/10/21 08:45:06;;;;;;;23.55;4.63;;;14.40;99.90;;;;;;4215141;28;20446;-56
2023/10/21 08:47:11;;;;;;;22.20;4.47;;;14.50;99.90;;;;;;4214537;28;20052;-54
2023/10/21 08:49:15;;;;;;;95.47;51.50;;;14.50;99.90;;;;;;4214692;28;20051;-55
2023/10/21 08:51:20;;;;;;;18.85;4.80;;;14.60;99.90;;;;;;4214614;28;20477;-54
2023/10/21 08:53:24;;;;;;;610.95;348.65;;;14.70;99.90;;;;;;4214618;28;20070;-55
2023/10/21 08:55:26;;;;;;;26.93;8.23;;;14.70;99.90;;;;;;4214042;28;20048;-55
2023/10/21 08:57:30;;;;;;;19.38;4.45;;;14.70;99.90;;;;;;4214823;28;20523;-54
2023/10/21 08:59:32;;;;;;;20.58;4.90;;;14.70;99.90;;;;;;4214549;28;20131;-55
2023/10/21 09:01:35;;;;;;;25.50;7.85;;;14.80;99.90;;;;;;4196925;28;20132;-56
2023/10/21 09:03:39;;;;;;;23.55;5.40;;;14.80;99.90;;;;;;4214478;28;20043;-55
2023/10/21 09:06:03;;;;;;;30.30;8.52;;;14.80;99.90;;;;;;4212927;28;20068;-55
2023/10/21 09:08:06;;;;;;;168.30;84.90;;;14.90;99.90;;;;;;4227615;28;20044;-55
2023/10/21 09:10:08;;;;;;;71.25;34.38;;;14.80;99.90;;;;;;4227672;28;20044;-54
2023/10/21 09:12:13;;;;;;;21.98;6.57;;;14.80;99.90;;;;;;4200341;28;20119;-56
2023/10/21 09:14:15;;;;;;;23.60;5.78;;;14.90;99.90;;;;;;4202177;28;20120;-56
2023/10/21 09:16:20;;;;;;;20.85;3.80;;;14.90;99.90;;;;;;4231011;28;20040;-55
2023/10/21 09:18:23;;;;;;;;;;;14.80;99.90;;;;;;4231724;28;20040;-54
2023/10/21 09:20:32;;;;;;;33.85;6.47;;;14.80;99.90;;;;;;4214162;28;19920;-54
2023/10/21 09:22:35;;;;;;;24.50;4.60;;;14.80;99.90;;;;;;4215127;28;20596;-54
2023/10/21 09:24:38;;;;;;;30.65;6.85;;;14.70;99.90;;;;;;4217789;28;20048;-54
2023/10/21 09:26:41;;;;;;;20.65;4.80;;;14.80;99.90;;;;;;4233592;28;20043;-56
2023/10/21 09:28:44;;;;;;;21.65;5.30;;;14.80;99.90;;;;;;4232522;28;20052;-56
2023/10/21 09:30:56;;;;;;;17.52;3.50;;;14.90;99.90;;;;;;4231897;28;20051;-60
2023/10/21 09:33:03;;;;;;;16.02;4.70;;;15.00;99.90;;;;;;4231307;28;20052;-55
2023/10/21 09:35:14;;;;;;;14.05;3.80;;;15.00;99.90;;;;;;4231051;28;20044;-55
2023/10/21 09:37:26;;;;;;;22.50;3.83;;;15.10;99.90;;;;;;4216352;28;20047;-54
2023/10/21 09:39:32;;;;;;;16.48;4.05;;;15.20;99.90;;;;;;4214090;28;20048;-55
2023/10/21 09:41:36;;;;;;;17.05;3.92;;;15.20;99.90;;;;;;4216045;28;20055;-56
2023/10/21 09:43:40;;;;;;;20.73;3.92;;;15.10;99.90;;;;;;4217176;28;20097;-56
2023/10/21 09:45:44;;;;;;;31.08;12.07;;;15.20;99.90;;;;;;4214147;28;20044;-55
2023/10/21 09:47:46;;;;;;;57.67;29.05;;;15.20;99.90;;;;;;4214154;28;20504;-55
2023/10/21 09:49:51;;;;;;;18.63;6.10;;;15.20;99.90;;;;;;4227451;28;20050;-56
2023/10/21 09:52:00;;;;;;;22.38;7.47;;;15.30;99.90;;;;;;4229611;28;20044;-55
2023/10/21 09:54:10;;;;;;;19.20;5.18;;;15.40;99.90;;;;;;4230591;28;20051;-57
2023/10/21 09:56:15;;;;;;;18.02;4.70;;;15.50;99.90;;;;;;4230820;28;20071;-56
2023/10/21 09:58:19;;;;;;;28.58;5.32;;;15.40;99.90;;;;;;4230894;28;20089;-57
2023/10/21 10:00:22;;;;;;;37.80;9.07;;;15.40;99.90;;;;;;4230874;28;20039;-55
2023/10/21 10:02:26;;;;;;;53.75;16.00;;;15.40;99.70;;;;;;4229575;28;20164;-56
2023/10/21 10:04:29;;;;;;;27.07;6.60;;;15.40;99.90;;;;;;4230842;28;20050;-56
2023/10/21 10:06:32;;;;;;;18.92;3.97;;;15.50;99.80;;;;;;4226439;28;20862;-55
2023/10/21 10:08:37;;;;;;;19.20;3.92;;;15.40;99.90;;;;;;4226102;28;20138;-55
2023/10/21 10:10:42;;;;;;;15.07;3.38;;;15.40;99.90;;;;;;4228249;28;20396;-56
2023/10/21 10:12:49;;;;;;;8.10;3.42;;;15.40;99.90;;;;;;4206235;28;20047;-54
2023/10/21 10:14:54;;;;;;;16.35;3.50;;;15.30;99.90;;;;;;4225337;28;20046;-59
2023/10/21 10:16:58;;;;;;;10.45;3.17;;;15.20;99.90;;;;;;4226976;28;20039;-55
2023/10/21 10:19:00;;;;;;;15.57;3.15;;;15.20;99.90;;;;;;4222205;28;20131;-56
2023/10/21 10:21:04;;;;;;;14.07;3.15;;;15.30;99.90;;;;;;4223521;28;20043;-55
2023/10/21 10:23:08;;;;;;;23.75;8.48;;;15.30;99.90;;;;;;4218799;28;20040;-56
2023/10/21 10:25:11;;;;;;;14.15;3.20;;;15.30;99.90;;;;;;4220159;28;20129;-58
2023/10/21 10:27:16;;;;;;;16.25;3.90;;;15.30;99.90;;;;;;4229633;28;20513;-56
2023/10/21 10:29:19;;;;;;;23.17;3.47;;;15.40;99.90;;;;;;4226862;28;20438;-60
2023/10/21 10:31:21;;;;;;;13.02;3.33;;;15.40;99.90;;;;;;4226228;28;20044;-58
2023/10/21 10:33:26;;;;;;;15.23;3.08;;;15.50;99.90;;;;;;4227968;28;20043;-57
2023/10/21 10:35:32;;;;;;;18.63;3.60;;;15.70;99.80;;;;;;4226844;28;20051;-55